Time;durP1;ratioP1;P1;durP2;ratioP2;P2;SDS_P1;SDS_P2;PMS_P1;PMS_P2;Temp;Humidity;BMP_temperature;BMP_pressure;BME280_temperature;BME280_humidity;BME280_pressure;Samples;Min_cycle;Max_cycle;Signal;HPM_P1;HPM_P2
2023/03/12 00:10:00;;;;;;;3.70;1.27;;;0.60;99.90;;;;;;6220707;23;20116;-89
2023/03/12 00:12:26;;;;;;;3.40;1.15;;;0.50;99.90;;;;;;6193968;23;20052;-96
2023/03/12 00:14:52;;;;;;;3.58;1.35;;;0.50;99.90;;;;;;6167519;23;20434;-89
2023/03/12 00:17:17;;;;;;;4.13;1.30;;;0.50;99.90;;;;;;6168926;23;20095;-93
2023/03/12 00:19:44;;;;;;;;;;;0.50;99.90;;;;;;6170724;23;20079;-90
2023/03/12 00:22:10;;;;;;;4.15;1.20;;;0.50;99.90;;;;;;6219426;23;19916;-91
2023/03/12 00:24:58;;;;;;;2.87;0.90;;;0.40;99.90;;;;;;6193366;23;20043;-90
2023/03/12 00:27:24;;;;;;;3.25;1.30;;;0.40;99.90;;;;;;6218801;23;20020;-89
2023/03/12 00:29:50;;;;;;;4.03;1.65;;;0.40;99.90;;;;;;6168992;23;20016;-89
2023/03/12 00:32:16;;;;;;;6.43;1.35;;;0.40;99.90;;;;;;6194798;23;20323;-90
2023/03/12 00:35:16;;;;;;;4.38;1.10;;;0.30;99.90;;;;;;6145711;23;20009;-89
2023/03/12 00:41:07;;;;;;;3.63;1.20;;;0.30;99.90;;;;;;6217942;23;20214;-94
2023/03/12 00:43:33;;;;;;;3.35;1.20;;;0.20;99.90;;;;;;6194195;23;20021;-96
2023/03/12 00:45:59;;;;;;;2.65;1.05;;;0.20;99.90;;;;;;6195409;23;20013;-96
2023/03/12 00:48:25;;;;;;;4.78;1.30;;;0.10;99.90;;;;;;6199124;23;20023;-96
2023/03/12 00:50:51;;;;;;;1.95;0.88;;;0.10;99.90;;;;;;6198728;23;20039;-95
2023/03/12 00:53:17;;;;;;;5.70;1.83;;;0.10;99.90;;;;;;6177593;23;20013;-96
2023/03/12 00:56:02;;;;;;;3.80;1.40;;;0.10;99.90;;;;;;6201340;23;20027;-96
2023/03/12 00:58:28;;;;;;;4.93;1.67;;;0.00;99.90;;;;;;6176956;23;20021;-93
2023/03/12 01:00:53;;;;;;;4.72;2.20;;;0.00;99.90;;;;;;6203285;23;20012;-96
2023/03/12 01:03:19;;;;;;;6.05;2.83;;;0.10;99.90;;;;;;6177255;23;20064;-96
2023/03/12 01:09:22;;;;;;;8.02;4.07;;;0.10;99.90;;;;;;6183756;23;20557;-91
2023/03/12 01:11:48;;;;;;;9.40;4.13;;;0.10;99.90;;;;;;6111698;23;20063;-91
2023/03/12 01:14:13;;;;;;;7.40;3.72;;;0.20;99.90;;;;;;6111954;23;20017;-93
2023/03/12 01:16:39;;;;;;;6.38;2.88;;;0.20;99.90;;;;;;6112350;23;20130;-91
2023/03/12 01:19:05;;;;;;;5.07;2.80;;;0.20;99.90;;;;;;6136431;23;20092;-91
2023/03/12 01:21:31;;;;;;;5.00;2.40;;;0.20;99.90;;;;;;6136511;23;20068;-92
2023/03/12 01:24:18;;;;;;;5.53;2.00;;;0.30;99.90;;;;;;6112365;23;20075;-91
2023/03/12 01:26:44;;;;;;;6.33;1.80;;;0.30;99.90;;;;;;6136407;23;20021;-89
2023/03/12 01:29:09;;;;;;;4.65;1.75;;;0.30;99.90;;;;;;6136223;23;20255;-90
2023/03/12 01:31:35;;;;;;;4.80;1.83;;;0.40;99.90;;;;;;6111794;23;20017;-89
2023/03/12 01:34:47;;;;;;;4.10;1.75;;;0.30;99.90;;;;;;6136578;23;20012;-90
2023/03/12 01:37:58;;;;;;;5.53;1.95;;;0.30;99.90;;;;;;6136744;23;20035;-94
2023/03/12 01:40:35;;;;;;;4.88;1.92;;;0.40;99.90;;;;;;6167488;23;20477;-93
2023/03/12 01:43:23;;;;;;;6.90;2.15;;;0.30;99.90;;;;;;6191614;23;20059;-88
2023/03/12 01:46:07;;;;;;;4.72;1.90;;;0.30;99.90;;;;;;6191235;23;20341;-91
2023/03/12 01:48:41;;;;;;;9.52;2.70;;;0.30;99.90;;;;;;6191019;23;20017;-90
2023/03/12 01:51:09;;;;;;;5.47;2.58;;;0.20;99.90;;;;;;6191042;23;20020;-90
2023/03/12 01:53:58;;;;;;;7.93;3.22;;;0.20;99.90;;;;;;6191811;23;20017;-89
2023/03/12 01:56:27;;;;;;;8.68;3.15;;;0.20;99.90;;;;;;6191185;23;20337;-92
2023/03/12 01:58:56;;;;;;;6.03;3.05;;;0.30;99.90;;;;;;6191370;23;20105;-93
2023/03/12 02:01:24;;;;;;;7.88;3.80;;;0.30;99.90;;;;;;6215898;23;20047;-92
2023/03/12 02:07:51;;;;;;;7.28;3.58;;;0.30;99.90;;;;;;6131053;23;20471;-95
2023/03/12 02:10:17;;;;;;;5.70;2.35;;;0.30;99.90;;;;;;6106051;23;20017;-89
2023/03/12 02:12:43;;;;;;;6.55;2.63;;;0.20;99.90;;;;;;6106293;23;20022;-90
2023/03/12 02:15:10;;;;;;;4.40;1.80;;;0.30;99.90;;;;;;6106480;23;20458;-95
2023/03/12 02:17:36;;;;;;;4.13;1.45;;;0.30;99.90;;;;;;6106336;23;20047;-90
2023/03/12 02:20:07;;;;;;;3.30;1.40;;;0.30;99.90;;;;;;6106610;23;20036;-91
2023/03/12 02:22:35;;;;;;;3.45;1.58;;;0.30;99.90;;;;;;6106376;23;20071;-91
2023/03/12 02:25:33;;;;;;;6.45;1.50;;;0.30;99.90;;;;;;6106695;23;20061;-93
2023/03/12 02:28:01;;;;;;;3.95;1.50;;;0.30;99.90;;;;;;6106556;23;20017;-93
2023/03/12 02:30:30;;;;;;;5.82;1.65;;;0.40;99.90;;;;;;6106793;23;20056;-92
2023/03/12 02:32:59;;;;;;;4.97;1.92;;;0.40;99.90;;;;;;6106787;23;20498;-90
2023/03/12 02:35:24;;;;;;;3.92;1.38;;;0.40;99.90;;;;;;6107451;23;20064;-90
2023/03/12 02:38:28;;;;;;;4.03;1.58;;;0.50;99.90;;;;;;6138592;23;20056;-90
2023/03/12 02:40:57;;;;;;;5.50;1.60;;;0.50;99.90;;;;;;6192327;23;20012;-93
2023/03/12 02:43:23;;;;;;;4.13;1.80;;;0.50;99.90;;;;;;6191041;23;20013;-94
2023/03/12 02:45:48;;;;;;;3.63;1.40;;;0.50;99.90;;;;;;6190990;23;20402;-92
2023/03/12 02:48:48;;;;;;;3.63;1.17;;;0.50;99.90;;;;;;6166912;23;20020;-93
2023/03/12 02:51:48;;;;;;;4.45;1.50;;;0.50;99.90;;;;;;6190934;23;20021;-93
2023/03/12 02:54:16;;;;;;;3.08;1.30;;;0.50;99.90;;;;;;6195370;23;20099;-92
2023/03/12 02:56:42;;;;;;;3.95;1.83;;;0.50;99.90;;;;;;6198631;23;20022;-90
2023/03/12 02:59:09;;;;;;;5.55;1.52;;;0.60;99.90;;;;;;6195919;23;20048;-89
2023/03/12 03:01:35;;;;;;;4.82;1.60;;;0.60;99.90;;;;;;6194955;23;20009;-89
2023/03/12 03:04:02;;;;;;;4.07;1.80;;;0.60;99.90;;;;;;6195678;23;20078;-89
2023/03/12 03:06:28;;;;;;;4.00;1.38;;;0.60;99.90;;;;;;6191322;23;20019;-90
2023/03/12 03:08:54;;;;;;;3.15;1.30;;;0.60;99.90;;;;;;6215426;23;20056;-91
2023/03/12 03:11:23;;;;;;;5.83;1.87;;;0.60;99.90;;;;;;6190610;23;20021;-95
2023/03/12 03:13:50;;;;;;;4.82;1.70;;;0.60;99.90;;;;;;6189910;23;20307;-93
2023/03/12 03:16:15;;;;;;;;;;;0.60;99.90;;;;;;6191015;23;20028;-90
2023/03/12 03:18:41;;;;;;;4.82;1.63;;;0.60;99.90;;;;;;6190422;23;19916;-92
2023/03/12 03:21:09;;;;;;;2.90;1.38;;;0.60;99.90;;;;;;6165770;23;20103;-96
2023/03/12 03:23:53;;;;;;;3.35;1.25;;;0.60;99.90;;;;;;6191250;23;20017;-92
2023/03/12 03:26:21;;;;;;;3.72;1.38;;;0.60;99.90;;;;;;6190047;23;20052;-92
2023/03/12 03:28:47;;;;;;;4.70;1.50;;;0.60;99.90;;;;;;6190576;23;20021;-90
2023/03/12 03:31:13;;;;;;;2.33;1.02;;;0.60;99.90;;;;;;6190414;23;20048;-93
2023/03/12 03:34:15;;;;;;;2.90;1.13;;;0.60;99.90;;;;;;6190355;23;20012;-89
2023/03/12 03:37:05;;;;;;;5.22;1.48;;;0.60;99.90;;;;;;6190921;23;20520;-90
2023/03/12 03:39:31;;;;;;;1.60;0.70;;;0.60;99.90;;;;;;6190640;23;20016;-89
2023/03/12 03:41:57;;;;;;;5.65;1.40;;;0.60;99.90;;;;;;6190445;23;20079;-91
2023/03/12 03:44:23;;;;;;;2.92;1.08;;;0.60;99.90;;;;;;6191330;23;20067;-91
2023/03/12 03:46:49;;;;;;;3.05;1.48;;;0.70;99.90;;;;;;6191296;23;20027;-96
2023/03/12 03:49:15;;;;;;;3.20;1.20;;;0.70;99.90;;;;;;6166729;23;20040;-96
2023/03/12 03:52:06;;;;;;;3.90;1.13;;;0.70;99.90;;;;;;6192294;23;20079;-88
2023/03/12 03:54:32;;;;;;;4.03;1.42;;;0.80;99.90;;;;;;6191928;23;20378;-89
2023/03/12 03:56:59;;;;;;;3.80;1.23;;;0.70;99.90;;;;;;6191343;23;20019;-96
2023/03/12 03:59:25;;;;;;;2.75;1.10;;;0.80;99.90;;;;;;6191683;23;20019;-95
2023/03/12 04:02:17;;;;;;;2.70;0.90;;;0.80;99.90;;;;;;6190817;23;20387;-90
2023/03/12 04:05:18;;;;;;;3.38;1.08;;;0.80;99.90;;;;;;6190455;23;20017;-91
2023/03/12 04:08:04;;;;;;;2.70;1.02;;;0.80;99.90;;;;;;6190838;23;20027;-94
2023/03/12 04:10:30;;;;;;;3.03;1.05;;;0.80;99.90;;;;;;6164969;23;20116;-93
2023/03/12 04:12:56;;;;;;;4.47;1.30;;;0.90;99.90;;;;;;6189991;23;20056;-90
2023/03/12 04:15:22;;;;;;;2.80;1.17;;;0.80;99.90;;;;;;6190372;23;20121;-92
2023/03/12 04:17:48;;;;;;;4.50;1.40;;;0.90;99.90;;;;;;6191455;23;20048;-94
2023/03/12 04:20:14;;;;;;;4.00;1.50;;;0.90;99.90;;;;;;6191177;23;20021;-90
2023/03/12 04:22:39;;;;;;;3.03;1.37;;;0.90;99.90;;;;;;6171975;23;20017;-89
2023/03/12 04:25:06;;;;;;;3.60;1.33;;;0.90;99.90;;;;;;6168456;23;20058;-92
2023/03/12 04:27:32;;;;;;;3.78;1.48;;;0.90;99.90;;;;;;6166015;23;20016;-90
2023/03/12 04:29:58;;;;;;;5.07;1.73;;;0.90;99.90;;;;;;6141654;23;20048;-91
2023/03/12 04:32:24;;;;;;;4.05;1.38;;;0.90;99.90;;;;;;6165551;23;20020;-92
2023/03/12 04:34:50;;;;;;;3.92;1.30;;;0.90;99.90;;;;;;6165503;23;20013;-91
2023/03/12 04:41:42;;;;;;;4.18;1.27;;;0.90;99.90;;;;;;6216236;23;20031;-93
2023/03/12 04:44:59;;;;;;;2.92;1.40;;;0.90;99.90;;;;;;6163505;23;20091;-94
2023/03/12 04:47:58;;;;;;;6.32;2.40;;;0.90;99.90;;;;;;6152842;23;20108;-96
2023/03/12 04:50:45;;;;;;;;;;;;;;;;;;;;;
2023/03/12 04:53:45;;;;;;;;;;;;;;;;;;;;;
2023/03/12 04:58:47;;;;;;;3.05;1.15;;;0.90;99.90;;;;;;6204493;23;20021;-95
2023/03/12 05:01:24;;;;;;;2.65;1.23;;;0.90;99.90;;;;;;6165468;23;20031;-95
2023/03/12 05:03:50;;;;;;;3.20;1.20;;;0.90;99.90;;;;;;6167707;23;20017;-94
2023/03/12 05:06:16;;;;;;;3.60;1.20;;;0.80;99.90;;;;;;6166749;23;20095;-96
2023/03/12 05:08:42;;;;;;;4.22;1.70;;;0.90;99.90;;;;;;6143193;23;20252;-92
2023/03/12 05:11:07;;;;;;;3.43;1.80;;;0.90;99.90;;;;;;6169680;23;20059;-90
2023/03/12 05:13:33;;;;;;;5.75;1.75;;;0.80;99.90;;;;;;6145251;23;20017;-92
2023/03/12 05:15:59;;;;;;;3.67;1.30;;;0.80;99.90;;;;;;6167401;23;20019;-92
2023/03/12 05:18:25;;;;;;;3.67;1.33;;;0.80;99.90;;;;;;6169421;23;20074;-91
2023/03/12 05:20:59;;;;;;;4.38;1.50;;;0.80;99.90;;;;;;6176450;23;20087;-92
2023/03/12 05:23:25;;;;;;;2.92;1.33;;;0.80;99.90;;;;;;6174529;23;20398;-93
2023/03/12 05:25:51;;;;;;;3.88;1.75;;;0.80;99.90;;;;;;6179482;23;20016;-93
2023/03/12 05:28:17;;;;;;;5.85;2.22;;;0.80;99.90;;;;;;6176582;23;20023;-96
2023/03/12 05:30:42;;;;;;;3.17;1.47;;;0.90;99.90;;;;;;6176180;23;20047;-94
2023/03/12 05:33:08;;;;;;;3.92;1.63;;;0.90;99.90;;;;;;6178279;23;20025;-93
2023/03/12 05:35:35;;;;;;;7.67;1.93;;;0.90;99.90;;;;;;6181505;23;20013;-91
2023/03/12 05:38:01;;;;;;;;;;;0.90;99.90;;;;;;6182113;23;20027;-93
2023/03/12 05:40:27;;;;;;;3.50;1.70;;;0.90;99.90;;;;;;6178803;23;19912;-92
2023/03/12 05:42:52;;;;;;;4.57;1.50;;;0.90;99.90;;;;;;6177308;23;20017;-92
2023/03/12 05:50:30;;;;;;;4.38;1.90;;;0.90;99.90;;;;;;6232916;23;20028;-91
2023/03/12 05:52:55;;;;;;;4.05;1.77;;;0.90;99.90;;;;;;6182547;23;20020;-89
2023/03/12 05:55:21;;;;;;;4.80;2.13;;;0.90;99.90;;;;;;6157430;23;20005;-89
2023/03/12 05:57:53;;;;;;;4.90;1.90;;;0.90;99.90;;;;;;6185113;23;20013;-92
2023/03/12 06:00:24;;;;;;;5.95;1.92;;;0.90;99.90;;;;;;6182659;23;20024;-90
2023/03/12 06:02:50;;;;;;;3.58;1.60;;;0.90;99.90;;;;;;6180047;23;20020;-92
2023/03/12 06:05:16;;;;;;;3.33;1.60;;;1.00;99.90;;;;;;6169048;23;20028;-91
2023/03/12 06:07:41;;;;;;;3.70;1.70;;;1.00;99.90;;;;;;6143746;23;20020;-95
2023/03/12 06:10:08;;;;;;;6.27;1.90;;;1.00;99.90;;;;;;6147087;23;20013;-96
2023/03/12 06:12:34;;;;;;;3.95;1.55;;;1.00;99.90;;;;;;6168349;23;20581;-90
2023/03/12 06:14:59;;;;;;;7.00;2.28;;;1.00;99.90;;;;;;6167305;23;20052;-91
2023/03/12 06:17:25;;;;;;;4.07;1.38;;;1.00;99.90;;;;;;6167069;23;20024;-91
2023/03/12 06:20:14;;;;;;;5.57;2.50;;;1.00;99.90;;;;;;6167260;23;20013;-96
2023/03/12 06:22:39;;;;;;;3.45;1.75;;;1.00;99.90;;;;;;6167566;23;20019;-96
2023/03/12 06:25:06;;;;;;;4.80;1.88;;;1.00;99.90;;;;;;6168209;23;20412;-96
2023/03/12 06:27:32;;;;;;;4.73;2.03;;;1.00;99.90;;;;;;6141329;23;20013;-90
2023/03/12 06:29:57;;;;;;;6.07;2.33;;;1.00;99.90;;;;;;6141996;23;20605;-90
2023/03/12 06:32:23;;;;;;;4.60;2.35;;;1.00;99.90;;;;;;6169471;23;20472;-96
2023/03/12 06:35:42;;;;;;;6.40;2.30;;;1.00;99.90;;;;;;6172516;23;20040;-94
2023/03/12 06:38:47;;;;;;;5.45;2.20;;;1.00;99.90;;;;;;6177716;23;20048;-96
2023/03/12 06:41:15;;;;;;;5.30;2.30;;;1.10;99.90;;;;;;6169226;23;20020;-92
2023/03/12 06:46:20;;;;;;;8.95;2.92;;;1.10;99.90;;;;;;6219275;23;20027;-89
2023/03/12 06:48:46;;;;;;;5.60;2.22;;;1.10;99.90;;;;;;6166873;23;20052;-91
2023/03/12 06:51:32;;;;;;;4.07;2.08;;;1.10;99.90;;;;;;6168898;23;20399;-92
2023/03/12 06:54:01;;;;;;;5.10;2.35;;;1.10;99.90;;;;;;6170917;23;20017;-96
2023/03/12 06:56:27;;;;;;;6.63;2.70;;;1.10;99.90;;;;;;6170917;23;20021;-95
2023/03/12 06:58:54;;;;;;;7.75;2.60;;;1.10;99.90;;;;;;6168482;23;20020;-93
2023/03/12 07:01:19;;;;;;;5.65;2.60;;;1.20;99.90;;;;;;6168163;23;20020;-96
2023/03/12 07:03:46;;;;;;;5.60;2.60;;;1.20;99.90;;;;;;6171418;23;20016;-96
2023/03/12 07:06:17;;;;;;;4.97;2.22;;;1.20;99.90;;;;;;6170950;23;20016;-93
2023/03/12 07:08:44;;;;;;;7.10;2.83;;;1.20;99.90;;;;;;6167717;23;20095;-96
2023/03/12 07:11:10;;;;;;;6.68;2.55;;;1.20;99.90;;;;;;6143006;23;20016;-92
2023/03/12 07:13:36;;;;;;;4.97;2.55;;;1.20;99.90;;;;;;6165238;23;20099;-96
2023/03/12 07:16:02;;;;;;;6.23;3.03;;;1.30;99.90;;;;;;6166545;23;20353;-93
2023/03/12 07:18:31;;;;;;;4.88;2.40;;;1.30;99.90;;;;;;6166152;23;20044;-94
2023/03/12 07:20:56;;;;;;;6.47;2.80;;;1.30;99.90;;;;;;6166061;23;20267;-95
2023/03/12 07:23:22;;;;;;;6.70;3.08;;;1.30;99.90;;;;;;6167428;23;20024;-94
2023/03/12 07:25:49;;;;;;;6.60;2.92;;;1.20;99.90;;;;;;6167762;23;20017;-94
2023/03/12 07:28:16;;;;;;;7.70;2.95;;;1.20;99.90;;;;;;6166146;23;20009;-92
2023/03/12 07:30:42;;;;;;;7.30;3.10;;;1.30;99.90;;;;;;6166847;23;20405;-93
2023/03/12 07:33:10;;;;;;;6.15;3.08;;;1.30;99.90;;;;;;6141529;23;20075;-94
2023/03/12 07:35:37;;;;;;;6.57;3.00;;;1.30;99.90;;;;;;6165649;23;20021;-91
2023/03/12 07:38:04;;;;;;;8.60;2.92;;;1.30;99.90;;;;;;6165810;23;20017;-92
2023/03/12 07:40:30;;;;;;;9.07;3.60;;;1.30;99.90;;;;;;6165901;23;20020;-92
2023/03/12 07:42:57;;;;;;;8.70;3.30;;;1.30;99.90;;;;;;6165636;23;20024;-94
2023/03/12 07:45:23;;;;;;;7.40;3.03;;;1.30;99.90;;;;;;6164657;23;20021;-93
2023/03/12 07:47:50;;;;;;;7.07;3.00;;;1.30;99.90;;;;;;6165914;23;20021;-94
2023/03/12 07:50:17;;;;;;;6.63;3.65;;;1.30;99.90;;;;;;6165695;23;20052;-92
2023/03/12 07:52:43;;;;;;;6.93;3.83;;;1.30;99.90;;;;;;6165730;23;20549;-93
2023/03/12 07:55:09;;;;;;;7.50;3.27;;;1.30;99.90;;;;;;6165666;23;20018;-93
2023/03/12 07:57:37;;;;;;;6.10;3.30;;;1.20;99.90;;;;;;6165552;23;20310;-94
2023/03/12 08:00:06;;;;;;;7.78;3.20;;;1.20;99.90;;;;;;6165484;23;20031;-92
2023/03/12 08:02:33;;;;;;;8.95;3.50;;;1.20;99.90;;;;;;6165231;23;20017;-93
2023/03/12 08:04:59;;;;;;;6.45;3.33;;;1.20;99.90;;;;;;6165574;23;20013;-92
2023/03/12 08:12:38;;;;;;;8.02;3.53;;;1.20;99.90;;;;;;6215958;23;20071;-94
2023/03/12 08:15:05;;;;;;;6.95;3.45;;;1.20;99.90;;;;;;6140683;23;20406;-94
2023/03/12 08:17:31;;;;;;;;;;;1.20;99.90;;;;;;6165998;23;20013;-95
2023/03/12 08:19:58;;;;;;;6.93;3.70;;;1.20;99.90;;;;;;6166111;23;19955;-96
2023/03/12 08:22:24;;;;;;;9.07;4.18;;;1.20;99.90;;;;;;6166416;23;20023;-96
2023/03/12 08:24:49;;;;;;;6.72;3.63;;;1.20;99.90;;;;;;6167261;23;20389;-93
2023/03/12 08:27:15;;;;;;;7.78;4.25;;;1.20;99.90;;;;;;6141310;23;20027;-96
2023/03/12 08:30:03;;;;;;;6.60;3.90;;;1.20;99.90;;;;;;6144727;23;20055;-95
2023/03/12 08:32:29;;;;;;;9.75;5.35;;;1.20;99.90;;;;;;6148389;23;20024;-96
2023/03/12 08:34:56;;;;;;;9.60;4.13;;;1.20;99.90;;;;;;6173660;23;20017;-96
2023/03/12 08:37:22;;;;;;;7.68;4.13;;;1.20;99.90;;;;;;6174439;23;20048;-95
2023/03/12 08:39:47;;;;;;;9.10;4.53;;;1.20;99.90;;;;;;6178240;23;20021;-96
2023/03/12 08:42:13;;;;;;;7.00;3.90;;;1.20;99.90;;;;;;6173058;23;20021;-96
2023/03/12 08:52:25;;;;;;;7.68;4.60;;;1.20;99.90;;;;;;6163533;23;20036;-93
2023/03/12 08:54:51;;;;;;;6.90;4.22;;;1.20;99.90;;;;;;6137602;23;20017;-95
2023/03/12 08:57:17;;;;;;;8.20;4.50;;;1.30;99.90;;;;;;6136491;23;20024;-93
2023/03/12 08:59:43;;;;;;;9.70;5.00;;;1.30;99.90;;;;;;6111859;23;20017;-96
2023/03/12 09:02:11;;;;;;;9.02;5.10;;;1.30;99.90;;;;;;6137237;23;20197;-92
2023/03/12 09:04:36;;;;;;;10.77;4.70;;;1.30;99.90;;;;;;6138547;23;20017;-93
2023/03/12 09:07:02;;;;;;;11.35;4.63;;;1.30;99.90;;;;;;6136629;23;20339;-91
2023/03/12 09:09:28;;;;;;;7.97;5.23;;;1.40;99.90;;;;;;6135542;23;20100;-91
2023/03/12 09:11:54;;;;;;;8.17;5.30;;;1.40;99.90;;;;;;6112181;23;20455;-92
2023/03/12 09:14:20;;;;;;;7.10;4.53;;;1.50;99.90;;;;;;6115474;23;20091;-94
2023/03/12 09:16:50;;;;;;;7.25;4.38;;;1.40;99.90;;;;;;6144057;23;20510;-92
2023/03/12 09:19:34;;;;;;;7.53;4.18;;;1.50;99.90;;;;;;6148332;23;20020;-92
2023/03/12 09:22:01;;;;;;;8.93;4.68;;;1.50;99.90;;;;;;6121958;23;20095;-94
2023/03/12 09:24:27;;;;;;;10.10;4.35;;;1.50;99.90;;;;;;6147190;23;20100;-94
2023/03/12 09:26:54;;;;;;;9.13;4.35;;;1.50;99.90;;;;;;6146448;23;20013;-93
2023/03/12 09:29:20;;;;;;;;;;;1.50;99.90;;;;;;6123772;23;20021;-91
2023/03/12 09:31:46;;;;;;;6.90;4.75;;;1.50;99.90;;;;;;6146757;23;20003;-92
2023/03/12 09:34:33;;;;;;;9.75;4.43;;;1.50;99.90;;;;;;6141729;23;20017;-94
2023/03/12 09:36:59;;;;;;;8.73;4.32;;;1.50;99.90;;;;;;6139305;23;20013;-95
2023/03/12 10:11:38;;;;;;;9.00;5.70;;;1.40;99.90;;;;;;6215483;23;20028;-91
2023/03/12 10:14:39;;;;;;;9.00;5.28;;;1.40;99.90;;;;;;6166107;23;20023;-92
2023/03/12 10:17:42;;;;;;;8.10;5.20;;;1.50;99.90;;;;;;6166016;23;20074;-90
2023/03/12 10:20:50;;;;;;;7.82;4.95;;;1.50;99.90;;;;;;6166279;23;20023;-90
2023/03/12 10:23:46;;;;;;;8.52;5.20;;;1.50;99.90;;;;;;6165837;23;20017;-91
2023/03/12 10:32:49;;;;;;;9.00;5.55;;;1.60;99.90;;;;;;6188372;23;20032;-94
2023/03/12 11:09:23;;;;;;;10.23;5.43;;;2.00;99.90;;;;;;6186345;23;20028;-93
2023/03/12 11:11:49;;;;;;;10.20;5.68;;;2.10;99.90;;;;;;6087371;23;20346;-95
2023/03/12 11:15:07;;;;;;;12.77;6.85;;;2.20;99.90;;;;;;6136093;23;20059;-95
2023/03/12 11:17:33;;;;;;;10.73;5.90;;;2.10;99.90;;;;;;6133593;23;20017;-94
2023/03/12 11:57:00;;;;;;;10.48;5.65;;;2.60;99.90;;;;;;6230485;23;20040;-95
2023/03/12 11:59:42;;;;;;;13.48;6.57;;;2.60;99.90;;;;;;6157749;23;20005;-95
2023/03/12 12:02:38;;;;;;;11.32;5.50;;;2.70;99.90;;;;;;6156035;23;20048;-94
2023/03/12 12:12:49;;;;;;;8.55;5.13;;;2.90;99.90;;;;;;6164933;23;20021;-91
2023/03/12 12:31:23;;;;;;;10.27;4.47;;;3.40;99.90;;;;;;6216672;23;20047;-95
2023/03/12 12:34:17;;;;;;;8.40;4.60;;;3.50;99.90;;;;;;6164309;23;20024;-91
2023/03/12 12:36:48;;;;;;;9.80;4.60;;;3.60;99.90;;;;;;6164333;23;20021;-90
2023/03/12 12:39:55;;;;;;;10.15;4.65;;;3.70;99.90;;;;;;6163764;23;20013;-90
2023/03/12 12:43:02;;;;;;;8.88;4.07;;;3.80;99.90;;;;;;6169485;23;20012;-88
2023/03/12 12:48:43;;;;;;;8.18;4.13;;;4.00;99.90;;;;;;6238008;22;20005;-89
2023/03/12 12:51:21;;;;;;;9.80;4.50;;;4.10;99.90;;;;;;6188201;23;20028;-96
2023/03/12 12:54:04;;;;;;;8.45;4.28;;;4.20;99.90;;;;;;6190179;23;20064;-94
2023/03/12 12:59:32;;;;;;;10.68;4.95;;;4.40;99.90;;;;;;6255452;22;20461;-90
2023/03/12 13:02:01;;;;;;;9.35;4.93;;;4.50;99.90;;;;;;6169974;23;20011;-96
2023/03/12 13:04:31;;;;;;;11.68;4.53;;;4.60;99.90;;;;;;6220872;23;20007;-89
2023/03/12 13:07:19;;;;;;;9.60;4.38;;;4.70;99.90;;;;;;6217942;22;20024;-86
2023/03/12 13:17:58;;;;;;;11.40;5.25;;;5.10;99.90;;;;;;6188000;23;20025;-93
2023/03/12 13:20:38;;;;;;;9.57;4.28;;;5.20;99.90;;;;;;6161705;23;20060;-93
2023/03/12 13:23:15;;;;;;;15.02;4.72;;;5.30;99.90;;;;;;6211929;23;20066;-93
2023/03/12 13:25:53;;;;;;;12.07;4.82;;;5.50;99.90;;;;;;6187161;23;20028;-93
2023/03/12 13:29:12;;;;;;;12.00;4.72;;;5.60;99.90;;;;;;6162174;23;20017;-93
2023/03/12 13:36:24;;;;;;;14.18;4.75;;;5.90;99.90;;;;;;6216378;23;20058;-92
2023/03/12 13:39:24;;;;;;;13.73;4.95;;;6.00;99.90;;;;;;6165721;23;20016;-94
2023/03/12 13:42:30;;;;;;;15.90;5.40;;;6.10;99.90;;;;;;6165674;23;20442;-93
2023/03/12 13:45:30;;;;;;;12.73;5.57;;;6.20;99.90;;;;;;6185645;23;20020;-89
2023/03/12 13:48:17;;;;;;;17.50;6.40;;;6.40;99.90;;;;;;6201494;23;20418;-89
2023/03/12 13:50:54;;;;;;;13.00;5.55;;;6.50;99.90;;;;;;6171983;23;20047;-92
2023/03/12 13:53:27;;;;;;;16.63;5.75;;;6.60;99.90;;;;;;6171626;23;20017;-90
2023/03/12 13:56:04;;;;;;;15.00;5.57;;;6.70;99.90;;;;;;6170991;23;20023;-92
2023/03/12 13:58:55;;;;;;;15.02;5.07;;;6.80;99.90;;;;;;6171232;23;20040;-90
2023/03/12 14:04:01;;;;;;;14.27;4.65;;;7.00;99.90;;;;;;6215126;23;20024;-95
2023/03/12 14:06:33;;;;;;;15.13;4.93;;;7.00;99.90;;;;;;6173798;23;20025;-88
2023/03/12 14:09:39;;;;;;;17.20;5.75;;;7.10;99.90;;;;;;6177446;23;20021;-87
2023/03/12 14:17:58;;;;;;;18.98;5.38;;;7.30;99.90;;;;;;6249401;23;20078;-92
2023/03/12 14:20:49;;;;;;;11.48;3.88;;;7.40;99.90;;;;;;6197245;23;20099;-92
2023/03/12 14:32:26;;;;;;;11.15;3.20;;;7.70;99.90;;;;;;6190493;23;20423;-92
2023/03/12 14:35:29;;;;;;;7.60;2.65;;;7.70;99.90;;;;;;6140016;23;20017;-91
2023/03/12 14:38:02;;;;;;;9.45;2.63;;;7.80;99.90;;;;;;6166014;23;20044;-91
2023/03/12 14:40:50;;;;;;;11.13;2.33;;;7.90;99.90;;;;;;6140288;23;20113;-91
2023/03/12 14:43:53;;;;;;;8.05;2.15;;;7.90;99.90;;;;;;6140694;23;20017;-93
2023/03/12 14:49:57;;;;;;;11.60;2.40;;;8.00;99.90;;;;;;6108694;23;20028;-93
2023/03/12 14:52:26;;;;;;;14.45;2.50;;;8.00;99.90;;;;;;6055941;23;20017;-95
2023/03/12 14:55:01;;;;;;;8.45;2.42;;;8.10;99.90;;;;;;6102733;23;20017;-92
2023/03/12 14:57:27;;;;;;;9.38;2.13;;;8.10;99.90;;;;;;6079082;23;20073;-89
2023/03/12 15:36:26;;;;;;;15.55;2.88;;;8.40;99.90;;;;;;6172280;23;1196919;-91
2023/03/12 15:39:20;;;;;;;14.70;2.33;;;8.40;99.90;;;;;;6200929;23;20052;-91
2023/03/12 15:41:48;;;;;;;10.40;2.15;;;8.40;99.90;;;;;;6199054;23;20019;-91
2023/03/12 15:44:27;;;;;;;11.93;2.95;;;8.40;99.90;;;;;;6197837;23;20477;-90
2023/03/12 16:35:22;;;;;;;15.57;3.08;;;8.50;99.90;;;;;;6216222;23;20020;-93
2023/03/12 16:53:28;;;;;;;15.32;2.50;;;8.40;99.90;;;;;;6223965;23;20349;-95
2023/03/12 16:55:56;;;;;;;12.73;2.33;;;8.30;99.90;;;;;;6166776;23;20071;-93
2023/03/12 16:58:23;;;;;;;14.25;2.20;;;8.30;99.90;;;;;;6170163;23;20078;-96
2023/03/12 17:00:53;;;;;;;13.27;2.67;;;8.30;99.90;;;;;;6173793;23;20072;-96
2023/03/12 17:03:36;;;;;;;14.90;2.83;;;8.30;99.90;;;;;;6180128;23;20024;-96
2023/03/12 17:11:19;;;;;;;8.52;1.98;;;8.20;99.90;;;;;;6225723;23;20016;-96
2023/03/12 17:13:57;;;;;;;14.45;2.38;;;8.20;99.90;;;;;;6178874;23;20021;-92
2023/03/12 17:16:46;;;;;;;11.05;2.42;;;8.10;99.90;;;;;;6170796;23;20020;-96
2023/03/12 17:19:12;;;;;;;10.95;2.45;;;8.10;99.90;;;;;;6143152;23;20012;-95
2023/03/12 17:22:03;;;;;;;13.93;2.73;;;8.10;99.90;;;;;;6169702;23;20454;-96
2023/03/12 17:24:29;;;;;;;7.50;2.45;;;8.10;99.90;;;;;;6167228;23;20021;-92
2023/03/12 17:26:55;;;;;;;13.33;2.43;;;8.10;99.90;;;;;;6148702;23;20072;-93
2023/03/12 17:29:21;;;;;;;;;;;8.10;99.90;;;;;;6171529;23;20526;-95
2023/03/12 17:36:12;;;;;;;14.35;2.38;;;8.00;99.90;;;;;;6219685;23;20095;-95
2023/03/12 17:56:35;;;;;;;7.85;1.95;;;8.00;99.90;;;;;;6193281;23;20017;-92
2023/03/12 17:59:01;;;;;;;11.03;3.87;;;8.00;99.90;;;;;;6166612;23;20020;-93
2023/03/12 18:05:54;;;;;;;20.30;6.53;;;7.90;99.90;;;;;;6218195;23;20015;-91
2023/03/12 18:08:20;;;;;;;11.48;3.80;;;7.90;99.90;;;;;;6166377;23;20075;-91
2023/03/12 18:10:47;;;;;;;12.63;2.38;;;7.80;99.90;;;;;;6171073;23;20026;-93
2023/03/12 18:13:13;;;;;;;11.43;2.55;;;7.80;99.90;;;;;;6173352;23;20021;-96
2023/03/12 18:15:38;;;;;;;16.67;3.25;;;7.90;99.90;;;;;;6144820;23;20473;-92
2023/03/12 18:18:04;;;;;;;12.50;3.47;;;7.90;99.90;;;;;;6167198;23;20024;-91
2023/03/12 18:20:30;;;;;;;11.07;2.93;;;7.90;99.90;;;;;;6169604;23;20017;-95
2023/03/12 18:51:25;;;;;;;14.38;3.20;;;7.90;99.90;;;;;;6199249;23;20474;-94
2023/03/12 18:53:51;;;;;;;9.87;2.80;;;7.80;99.90;;;;;;6137200;23;20020;-94
2023/03/12 18:58:52;;;;;;;13.27;2.67;;;7.80;99.90;;;;;;6238280;22;20024;-96
2023/03/12 19:01:18;;;;;;;7.87;1.93;;;7.80;99.90;;;;;;6154757;23;20079;-95
2023/03/12 19:03:44;;;;;;;12.67;2.47;;;7.80;99.90;;;;;;6153589;23;20034;-93
2023/03/12 19:09:00;;;;;;;9.05;2.42;;;7.90;99.90;;;;;;6225496;23;20028;-95
2023/03/12 19:11:26;;;;;;;9.23;2.63;;;7.80;99.90;;;;;;6153664;23;20021;-96
2023/03/12 19:13:52;;;;;;;13.40;1.90;;;7.90;99.90;;;;;;6149873;23;20024;-96
2023/03/12 19:16:38;;;;;;;12.23;2.38;;;7.90;99.90;;;;;;6171877;23;20032;-91
2023/03/12 19:19:04;;;;;;;22.08;4.70;;;7.90;99.90;;;;;;6179478;23;20004;-96
2023/03/12 19:21:47;;;;;;;17.88;4.53;;;7.90;99.90;;;;;;6146931;23;20017;-95
2023/03/12 19:24:14;;;;;;;16.98;2.83;;;7.90;99.90;;;;;;6176581;23;20047;-96
2023/03/12 19:27:15;;;;;;;12.85;3.25;;;7.90;99.90;;;;;;6175856;23;20016;-96
2023/03/12 19:34:09;;;;;;;19.05;3.78;;;7.90;99.90;;;;;;6221619;23;20031;-93
2023/03/12 19:36:42;;;;;;;17.10;3.65;;;7.90;99.90;;;;;;6203739;23;20027;-91
2023/03/12 19:39:10;;;;;;;14.20;3.00;;;8.00;99.90;;;;;;6195254;23;20477;-94
2023/03/12 19:41:36;;;;;;;15.32;2.60;;;8.00;99.90;;;;;;6171410;23;20021;-94
2023/03/12 19:44:02;;;;;;;12.07;3.30;;;8.00;99.90;;;;;;6170898;23;20042;-94
2023/03/12 19:46:55;;;;;;;11.33;3.33;;;8.00;99.90;;;;;;6144198;23;20028;-94
2023/03/12 19:49:41;;;;;;;13.25;2.58;;;8.00;99.90;;;;;;6168306;23;20068;-96
2023/03/12 19:52:07;;;;;;;11.45;2.17;;;8.00;99.90;;;;;;6145913;23;20027;-95
2023/03/12 19:54:53;;;;;;;14.32;2.75;;;8.00;99.90;;;;;;6170325;23;20016;-94
2023/03/12 19:57:47;;;;;;;;;;;;;;;;;;;;;
2023/03/12 20:16:52;;;;;;;14.43;3.28;;;8.00;99.90;;;;;;6186194;23;20021;-90
2023/03/12 20:19:17;;;;;;;14.47;2.47;;;8.00;99.90;;;;;;6111526;23;20380;-90